This is the latest recevied weather packets stored in our database for station/object KO4LCK. If no packets are shown the sender has not sent any weather packets the latest 10 day(s).
| Time | Temp. | Humidity | Pressure | Rain* | Wind** | Luminosity | Snow |
|---|---|---|---|---|---|---|---|
| 1777497414 | 27.78° C | 64% | 1011 hPa | 0 mm | - | 172 W/m² | - |
| 1777497109 | 27.78° C | 64% | 1011 hPa | 0 mm | - | 158 W/m² | - |
| 1777496806 | 27.22° C | 64% | 1011.3 hPa | 0 mm | - | 193 W/m² | - |
| 1777496503 | 27.22° C | 66% | 1011.2 hPa | 0 mm | - | 236 W/m² | - |
| 1777496199 | 27.78° C | 62% | 1011.3 hPa | 0 mm | - | 221 W/m² | - |
| 1777495896 | 28.33° C | 63% | 1011.2 hPa | 0 mm | - | 287 W/m² | - |
| 1777495592 | 28.33° C | 62% | 1011.2 hPa | 0 mm | - | 242 W/m² | - |
| 1777495287 | 27.78° C | 64% | 1011.3 hPa | 0 mm | - | 526 W/m² | - |
| 1777494986 | 27.78° C | 65% | 1011.4 hPa | 0 mm | - | 214 W/m² | - |
| 1777494682 | 27.78° C | 62% | 1011.5 hPa | 0 mm | - | 306 W/m² | - |
| 1777494379 | 28.89° C | 61% | 1011.5 hPa | 0 mm | - | 168 W/m² | - |
| 1777494076 | 28.33° C | 63% | 1011.7 hPa | 0 mm | - | 670 W/m² | - |
| 1777493774 | 28.89° C | 63% | 1011.7 hPa | 0 mm | - | 197 W/m² | - |
| 1777493472 | 28.33° C | 63% | 1012 hPa | 0 mm | - | 590 W/m² | - |
| 1777493168 | 27.22° C | 65% | 1012 hPa | 0 mm | - | 712 W/m² | - |
| 1777492864 | 26.67° C | 69% | 1012.1 hPa | 0 mm | - | 375 W/m² | - |
| 1777492561 | 26.67° C | 68% | 1012.2 hPa | 0 mm | - | 225 W/m² | - |
| 1777492256 | 27.22° C | 67% | 1012.3 hPa | 0 mm | - | 281 W/m² | - |
| 1777491954 | 27.78° C | 65% | 1012.5 hPa | 0 mm | - | 295 W/m² | - |
| 1777491649 | 27.22° C | 67% | 1012.6 hPa | 0 mm | - | 525 W/m² | - |
| 1777491348 | 27.22° C | 67% | 1012.6 hPa | 0 mm | - | 252 W/m² | - |
| 1777491045 | 26.67° C | 69% | 1012.8 hPa | 0 mm | - | 268 W/m² | - |
| 1777490740 | 27.22° C | 68% | 1012.8 hPa | 0 mm | - | 187 W/m² | - |
| 1777490437 | 26.67° C | 69% | 1012.9 hPa | 0 mm | - | 770 W/m² | - |
| 1777490133 | 26.67° C | 69% | 1012.9 hPa | 0 mm | - | 189 W/m² | - |
* Rain latest hour (hover to see other rain measurements)
** Current wind speed in m/s (hover to see current wind gust speed)